createdAt,value
2023-04-11T00:01:14.929Z,5.80
2023-04-11T00:03:41.763Z,4.03
2023-04-11T00:06:08.713Z,3.07
2023-04-11T00:08:35.315Z,3.00
2023-04-11T00:11:01.937Z,2.73
2023-04-11T00:13:28.570Z,3.97
2023-04-11T00:15:55.897Z,5.07
2023-04-11T00:18:23.085Z,4.83
2023-04-11T00:20:49.758Z,2.40
2023-04-11T00:23:16.464Z,4.10
2023-04-11T00:25:43.152Z,6.73
2023-04-11T00:28:10.577Z,3.80
2023-04-11T00:30:37.865Z,3.03
2023-04-11T00:33:04.621Z,2.73
2023-04-11T00:35:34.727Z,3.87
2023-04-11T00:38:02.216Z,3.13
2023-04-11T00:40:29.137Z,4.60
2023-04-11T00:42:56.692Z,2.23
2023-04-11T00:45:23.377Z,2.40
2023-04-11T00:47:50.579Z,3.00
2023-04-11T00:50:18.341Z,7.70
2023-04-11T00:52:48.400Z,2.50
2023-04-11T00:55:15.163Z,4.43
2023-04-11T00:57:42.944Z,4.43
2023-04-11T01:00:10.843Z,2.17
2023-04-11T01:02:38.811Z,3.53
2023-04-11T01:05:05.901Z,3.00
2023-04-11T01:07:34.397Z,4.03
2023-04-11T01:10:01.560Z,4.07
2023-04-11T01:12:29.615Z,3.20
2023-04-11T01:14:56.642Z,2.47
2023-04-11T01:17:25.700Z,4.50
2023-04-11T01:19:52.507Z,3.37
2023-04-11T01:22:21.515Z,2.23
2023-04-11T01:24:48.296Z,1.97
2023-04-11T01:27:15.127Z,3.20
2023-04-11T01:29:41.677Z,3.30
2023-04-11T01:32:08.500Z,2.07
2023-04-11T01:34:36.223Z,4.43
2023-04-11T01:37:02.835Z,2.10
2023-04-11T01:39:29.885Z,4.50
2023-04-11T01:41:57.819Z,2.20
2023-04-11T01:44:25.627Z,4.67
2023-04-11T01:46:52.384Z,2.37
2023-04-11T01:49:19.038Z,1.97
2023-04-11T01:51:47.213Z,2.77
2023-04-11T01:54:13.906Z,3.07
2023-04-11T01:56:40.487Z,2.20
2023-04-11T01:59:07.143Z,3.43
2023-04-11T02:01:34.530Z,1.80
2023-04-11T02:04:01.708Z,5.80
2023-04-11T02:06:28.517Z,2.00
2023-04-11T02:08:55.323Z,3.53
2023-04-11T02:11:22.210Z,2.87
2023-04-11T02:13:49.334Z,5.83
2023-04-11T02:16:18.093Z,5.77
2023-04-11T02:18:46.286Z,3.17
2023-04-11T02:21:13.242Z,3.63
2023-04-11T02:23:39.991Z,2.33
2023-04-11T02:26:08.759Z,3.57
2023-04-11T02:28:36.663Z,1.87
2023-04-11T02:31:03.809Z,5.53
2023-04-11T02:33:30.771Z,2.17
2023-04-11T02:35:57.491Z,2.70
2023-04-11T02:38:24.141Z,4.87
2023-04-11T02:40:51.161Z,3.27
2023-04-11T02:43:18.808Z,9.53
2023-04-11T02:45:45.468Z,3.87
2023-04-11T02:48:14.005Z,8.50
2023-04-11T02:50:43.926Z,4.40
2023-04-11T02:53:11.388Z,4.10
2023-04-11T02:55:43.801Z,3.10
2023-04-11T02:58:10.692Z,6.83
2023-04-11T03:00:38.116Z,6.50
2023-04-11T03:03:08.166Z,5.37
2023-04-11T03:05:40.402Z,9.67
2023-04-11T03:08:09.171Z,6.03
2023-04-11T03:10:38.868Z,8.53
2023-04-11T03:13:09.219Z,9.93
2023-04-11T03:15:36.252Z,10.57
2023-04-11T03:18:07.087Z,11.87
2023-04-11T03:20:36.876Z,12.97
2023-04-11T03:23:03.729Z,11.93
2023-04-11T03:25:30.565Z,14.13
2023-04-11T03:27:57.862Z,14.17
2023-04-11T03:30:24.706Z,11.93
2023-04-11T03:32:52.985Z,9.87
2023-04-11T03:35:20.770Z,13.40
2023-04-11T03:37:49.505Z,11.73
2023-04-11T03:40:18.513Z,11.60
2023-04-11T03:42:50.609Z,14.10
2023-04-11T03:45:21.502Z,10.47
2023-04-11T03:47:49.630Z,12.40
2023-04-11T03:50:19.893Z,18.70
2023-04-11T03:52:50.012Z,9.20
2023-04-11T03:55:16.850Z,14.70
2023-04-11T03:57:43.631Z,12.13
2023-04-11T04:00:11.345Z,14.83
2023-04-11T04:02:54.035Z,14.20
2023-04-11T04:05:20.968Z,12.60
2023-04-11T04:07:48.087Z,10.60
2023-04-11T04:10:22.499Z,10.27
2023-04-11T04:12:53.259Z,13.93
2023-04-11T04:15:23.204Z,11.10
2023-04-11T04:17:51.445Z,15.70
2023-04-11T04:20:38.028Z,14.90
2023-04-11T04:23:04.892Z,13.57
2023-04-11T04:25:50.228Z,10.60
2023-04-11T04:28:22.239Z,13.43
2023-04-11T04:30:54.382Z,9.77
2023-04-11T04:33:23.049Z,12.67
2023-04-11T04:35:58.157Z,13.17
2023-04-11T04:38:29.033Z,16.93
2023-04-11T04:40:58.656Z,14.13
2023-04-11T04:43:27.405Z,12.03
2023-04-11T04:46:05.902Z,16.73
2023-04-11T04:48:40.447Z,10.53
2023-04-11T04:51:07.759Z,20.40
2023-04-11T04:53:38.827Z,11.70
2023-04-11T04:56:08.071Z,14.50
2023-04-11T04:58:38.991Z,8.70
2023-04-11T05:01:09.144Z,9.90
2023-04-11T05:03:38.691Z,11.40
2023-04-11T05:06:10.291Z,8.03
2023-04-11T05:08:38.292Z,11.80
2023-04-11T05:11:07.134Z,13.20
2023-04-11T05:13:35.345Z,10.43
2023-04-11T05:16:03.326Z,8.57
2023-04-11T05:18:31.154Z,12.30
2023-04-11T05:20:58.124Z,18.40
2023-04-11T05:23:30.979Z,10.23
2023-04-11T05:26:01.239Z,11.87
2023-04-11T05:28:31.517Z,10.23
2023-04-11T05:30:58.834Z,8.40
2023-04-11T05:33:25.583Z,11.13
2023-04-11T05:35:52.459Z,3.57
2023-04-11T05:38:19.746Z,4.07
2023-04-11T05:40:46.730Z,4.17
2023-04-11T05:43:15.272Z,5.00
2023-04-11T05:45:42.672Z,9.07
2023-04-11T05:48:09.504Z,6.03
2023-04-11T05:50:36.490Z,5.60
2023-04-11T05:53:03.430Z,4.23
2023-04-11T05:55:30.026Z,5.33
2023-04-11T05:57:56.660Z,4.93
2023-04-11T06:00:24.286Z,7.23
2023-04-11T06:02:51.157Z,2.73
2023-04-11T06:05:18.049Z,2.40
2023-04-11T06:07:45.400Z,4.50
2023-04-11T06:10:12.061Z,4.10
2023-04-11T06:12:38.731Z,5.33
2023-04-11T06:15:06.186Z,4.77
2023-04-11T06:17:32.842Z,5.93
2023-04-11T06:20:04.762Z,3.30
2023-04-11T06:22:32.972Z,5.10
2023-04-11T06:24:59.646Z,3.80
2023-04-11T06:27:26.762Z,4.70
2023-04-11T06:29:53.501Z,7.53
2023-04-11T06:32:20.542Z,8.67
2023-04-11T06:34:47.153Z,7.13
2023-04-11T06:37:14.774Z,5.03
2023-04-11T06:39:41.395Z,8.23
2023-04-11T06:42:08.069Z,7.20
2023-04-11T06:44:35.035Z,6.43
2023-04-11T06:47:01.916Z,6.23
2023-04-11T06:49:28.813Z,3.90
2023-04-11T06:51:56.087Z,4.90
2023-04-11T06:54:23.041Z,5.80
2023-04-11T06:56:51.770Z,11.87
2023-04-11T06:59:21.981Z,6.60
2023-04-11T07:01:49.897Z,12.50
2023-04-11T07:04:21.210Z,10.77
2023-04-11T07:06:48.020Z,6.30
2023-04-11T07:09:14.780Z,7.70
2023-04-11T07:11:41.583Z,9.30
2023-04-11T07:14:08.204Z,6.80
2023-04-11T07:16:34.867Z,7.23
2023-04-11T07:19:03.113Z,8.60
2023-04-11T07:21:31.968Z,9.13
2023-04-11T07:24:00.404Z,5.20
2023-04-11T07:26:32.137Z,3.60
2023-04-11T07:29:02.232Z,11.63
2023-04-11T07:31:29.051Z,7.80
2023-04-11T07:33:55.965Z,9.87
2023-04-11T07:36:22.846Z,8.10
2023-04-11T07:38:49.615Z,5.33
2023-04-11T07:41:16.391Z,3.63
2023-04-11T07:43:43.220Z,5.43
2023-04-11T07:46:10.256Z,6.33
2023-04-11T07:48:37.028Z,3.47
2023-04-11T07:51:03.712Z,8.87
2023-04-11T07:53:34.543Z,4.50
2023-04-11T07:56:01.395Z,4.47
2023-04-11T07:58:28.678Z,5.73
2023-04-11T08:00:55.467Z,4.60
2023-04-11T08:03:23.656Z,4.40
2023-04-11T08:05:50.756Z,4.10
2023-04-11T08:08:17.470Z,8.10
2023-04-11T08:10:44.118Z,8.53
2023-04-11T08:13:10.744Z,5.53
2023-04-11T08:15:38.876Z,7.37
2023-04-11T08:18:05.913Z,11.90
2023-04-11T08:20:32.620Z,6.97
2023-04-11T08:22:59.529Z,8.73
2023-04-11T08:25:26.385Z,10.03
2023-04-11T08:27:53.110Z,5.57
2023-04-11T08:30:20.364Z,6.40
2023-04-11T08:32:47.109Z,5.97
2023-04-11T08:35:14.637Z,8.97
2023-04-11T08:37:41.523Z,7.80
2023-04-11T08:40:09.149Z,6.20
2023-04-11T08:42:36.226Z,5.87
2023-04-11T08:45:05.201Z,11.13
2023-04-11T08:47:31.996Z,7.23
2023-04-11T08:49:58.697Z,4.10
2023-04-11T08:52:25.748Z,4.70
2023-04-11T08:54:55.158Z,5.10
2023-04-11T08:57:34.978Z,7.40
2023-04-11T09:00:19.280Z,6.53
2023-04-11T09:03:07.795Z,9.63
2023-04-11T09:05:39.975Z,6.23
2023-04-11T09:08:08.689Z,4.53
2023-04-11T09:10:36.472Z,7.43
2023-04-11T09:13:18.556Z,10.20
2023-04-11T09:15:45.405Z,6.03
2023-04-11T09:18:31.112Z,5.80
2023-04-11T09:21:00.657Z,4.70
2023-04-11T09:23:27.529Z,4.30
2023-04-11T09:25:54.134Z,7.10
2023-04-11T09:28:20.710Z,8.80
2023-04-11T09:30:55.085Z,6.00
2023-04-11T09:33:28.395Z,9.03
2023-04-11T09:35:56.888Z,4.73
2023-04-11T09:38:31.842Z,4.60
2023-04-11T09:40:59.976Z,4.33
2023-04-11T09:43:26.945Z,5.33
2023-04-11T09:46:18.402Z,8.47
2023-04-11T09:49:01.806Z,8.13
2023-04-11T09:51:35.978Z,3.07
2023-04-11T09:54:04.741Z,6.70
2023-04-11T09:56:34.278Z,7.67
2023-04-11T09:59:02.811Z,7.60
2023-04-11T10:01:29.496Z,5.63
2023-04-11T10:03:57.168Z,2.97
2023-04-11T10:06:34.140Z,9.53
2023-04-11T10:09:12.602Z,3.47
2023-04-11T10:11:46.142Z,5.03
2023-04-11T10:14:37.853Z,4.57
2023-04-11T10:17:18.936Z,4.73
2023-04-11T10:19:48.599Z,4.47
2023-04-11T10:22:43.968Z,4.10
2023-04-11T10:25:21.659Z,6.30
2023-04-11T10:27:50.237Z,4.87
2023-04-11T10:30:17.084Z,7.93
2023-04-11T10:33:21.365Z,4.90
2023-04-11T10:36:10.340Z,4.30
2023-04-11T10:38:37.561Z,3.00
2023-04-11T10:41:28.505Z,9.93
2023-04-11T10:44:21.465Z,4.87
2023-04-11T10:46:54.118Z,6.10
2023-04-11T10:49:40.416Z,4.00
2023-04-11T10:52:20.695Z,7.40
2023-04-11T10:54:48.783Z,5.53
2023-04-11T10:57:15.468Z,3.53
2023-04-11T10:59:42.411Z,5.00
2023-04-11T11:02:09.174Z,7.23
2023-04-11T11:04:41.196Z,4.50
2023-04-11T11:07:12.605Z,6.83
2023-04-11T11:09:39.518Z,3.10
2023-04-11T11:12:13.154Z,3.80
2023-04-11T11:14:41.783Z,11.17
2023-04-11T11:17:09.062Z,5.53
2023-04-11T11:19:36.113Z,6.13
2023-04-11T11:22:06.753Z,3.67
2023-04-11T11:24:33.485Z,6.03
2023-04-11T11:27:00.560Z,6.10
2023-04-11T11:29:31.126Z,3.83
2023-04-11T11:31:59.101Z,4.83
2023-04-11T11:34:30.936Z,3.50
2023-04-11T11:36:59.125Z,3.83
2023-04-11T11:39:26.080Z,2.90
2023-04-11T11:41:53.529Z,8.20
2023-04-11T11:44:23.917Z,4.30
2023-04-11T11:47:12.590Z,4.27
2023-04-11T11:49:55.422Z,7.40
2023-04-11T11:52:41.934Z,3.80
2023-04-11T11:55:17.893Z,3.93
2023-04-11T11:57:48.951Z,2.93
2023-04-11T12:00:23.897Z,5.73
2023-04-11T12:02:55.092Z,3.53
2023-04-11T12:05:24.622Z,6.33
2023-04-11T12:07:59.429Z,4.17
2023-04-11T12:10:36.098Z,4.20
2023-04-11T12:13:02.755Z,4.37
2023-04-11T12:15:29.486Z,6.10
2023-04-11T12:17:56.541Z,3.27
2023-04-11T12:20:24.377Z,2.73
2023-04-11T12:22:52.273Z,3.27
2023-04-11T12:25:21.069Z,4.53
2023-04-11T12:27:48.647Z,5.70
2023-04-11T12:30:15.440Z,5.87
2023-04-11T12:32:42.738Z,4.67
2023-04-11T12:35:10.321Z,8.57
2023-04-11T12:37:37.525Z,5.53
2023-04-11T12:40:12.417Z,4.37
2023-04-11T12:42:49.572Z,6.60
2023-04-11T12:45:22.320Z,3.20
2023-04-11T12:47:49.064Z,2.77
2023-04-11T12:50:15.818Z,3.13
2023-04-11T12:52:42.583Z,4.60
2023-04-11T12:55:09.832Z,4.03
2023-04-11T12:57:36.741Z,6.30
2023-04-11T13:00:07.362Z,4.17
2023-04-11T13:02:42.295Z,5.10
2023-04-11T13:05:11.945Z,2.43
2023-04-11T13:07:39.361Z,7.97
2023-04-11T13:10:09.229Z,3.53
2023-04-11T13:12:41.176Z,4.10
2023-04-11T13:15:09.713Z,9.13
2023-04-11T13:17:36.509Z,3.20
2023-04-11T13:20:07.500Z,5.80
2023-04-11T13:22:34.152Z,5.60
2023-04-11T13:25:00.923Z,4.17
2023-04-11T13:27:27.672Z,7.37
2023-04-11T13:29:54.346Z,4.03
2023-04-11T13:32:21.126Z,6.30
2023-04-11T13:34:47.862Z,5.00
2023-04-11T13:37:15.929Z,3.50
2023-04-11T13:39:42.719Z,5.43
2023-04-11T13:42:10.172Z,3.07
2023-04-11T13:44:36.838Z,7.63
2023-04-11T13:47:03.728Z,4.50
2023-04-11T13:49:30.328Z,5.00
2023-04-11T13:51:58.963Z,5.03
2023-04-11T13:54:26.177Z,3.00
2023-04-11T13:56:52.845Z,5.10
2023-04-11T13:59:19.473Z,4.30
2023-04-11T14:01:46.183Z,4.63
2023-04-11T14:04:13.137Z,3.23
2023-04-11T14:06:39.866Z,3.90
2023-04-11T14:09:06.604Z,6.03
2023-04-11T14:11:33.476Z,6.57
2023-04-11T14:14:00.585Z,3.90
2023-04-11T14:16:27.306Z,8.03
2023-04-11T14:18:53.982Z,6.13
2023-04-11T14:21:21.542Z,3.43
2023-04-11T14:23:48.825Z,5.10
2023-04-11T14:26:18.257Z,9.00
2023-04-11T14:28:45.381Z,7.83
2023-04-11T14:31:12.081Z,3.23
2023-04-11T14:33:38.845Z,3.97
2023-04-11T14:36:05.721Z,4.43
2023-04-11T14:38:32.396Z,3.90
2023-04-11T14:40:59.160Z,3.77
2023-04-11T14:43:26.849Z,5.80
2023-04-11T14:45:57.829Z,3.33
2023-04-11T14:48:26.213Z,2.30
2023-04-11T14:50:54.739Z,3.43
2023-04-11T14:53:27.754Z,2.33
2023-04-11T14:55:54.314Z,3.43
2023-04-11T14:58:21.045Z,6.20
2023-04-11T15:00:47.780Z,4.63
2023-04-11T15:03:14.615Z,5.10
2023-04-11T15:05:41.443Z,2.63
2023-04-11T15:08:08.230Z,3.87
2023-04-11T15:10:34.959Z,3.00
2023-04-11T15:13:01.735Z,4.80
2023-04-11T15:15:28.534Z,6.37
2023-04-11T15:18:20.384Z,5.63
2023-04-11T15:20:47.045Z,4.70
2023-04-11T15:23:18.423Z,4.60
2023-04-11T15:25:46.756Z,4.00
2023-04-11T15:28:13.417Z,2.30
2023-04-11T15:30:49.402Z,6.03
2023-04-11T15:33:16.508Z,7.13
2023-04-11T15:35:44.024Z,2.43
2023-04-11T15:38:14.451Z,5.80
2023-04-11T15:40:41.243Z,2.17
2023-04-11T15:43:08.949Z,12.77
2023-04-11T15:45:37.488Z,5.10
2023-04-11T15:48:04.317Z,5.10
2023-04-11T15:50:32.226Z,3.47
2023-04-11T15:52:59.269Z,7.20
2023-04-11T15:55:25.841Z,7.60
2023-04-11T15:57:52.597Z,10.40
2023-04-11T16:00:22.158Z,8.00
2023-04-11T16:02:50.391Z,7.47
2023-04-11T16:05:17.489Z,3.57
2023-04-11T16:07:44.405Z,3.17
2023-04-11T16:10:11.160Z,7.00
2023-04-11T16:12:37.852Z,7.40
2023-04-11T16:15:05.665Z,4.10
2023-04-11T16:17:32.962Z,6.43
2023-04-11T16:20:00.212Z,12.23
2023-04-11T16:22:26.968Z,5.40
2023-04-11T16:24:56.370Z,15.40
2023-04-11T16:27:27.646Z,15.90
2023-04-11T16:29:59.728Z,4.77
2023-04-11T16:32:27.702Z,6.10
2023-04-11T16:35:04.295Z,4.70
2023-04-11T16:37:31.041Z,10.77
2023-04-11T16:39:57.966Z,12.93
2023-04-11T16:42:34.296Z,5.50
2023-04-11T16:45:01.221Z,4.30
2023-04-11T16:47:27.946Z,6.80
2023-04-11T16:49:56.990Z,2.30
2023-04-11T16:52:26.663Z,8.80
2023-04-11T16:54:55.610Z,6.43
2023-04-11T16:57:24.302Z,4.17
2023-04-11T16:59:51.647Z,4.40
2023-04-11T17:02:25.536Z,7.80
2023-04-11T17:04:59.791Z,5.63
2023-04-11T17:07:28.460Z,5.27
2023-04-11T17:09:57.626Z,6.73
2023-04-11T17:12:27.114Z,2.77
2023-04-11T17:14:56.795Z,9.63
2023-04-11T17:17:23.460Z,5.57
2023-04-11T17:19:51.435Z,4.13
2023-04-11T17:22:18.341Z,5.67
2023-04-11T17:24:44.992Z,6.90
2023-04-11T17:27:11.768Z,3.73
2023-04-11T17:29:40.836Z,4.63
2023-04-11T17:32:07.666Z,6.30
2023-04-11T17:34:34.373Z,4.93
2023-04-11T17:37:01.171Z,4.03
2023-04-11T17:39:27.989Z,13.70
2023-04-11T17:42:02.043Z,30.67
2023-04-11T17:44:28.729Z,28.00
2023-04-11T17:46:55.732Z,18.07
2023-04-11T17:49:24.454Z,9.00
2023-04-11T17:51:58.991Z,3.97
2023-04-11T17:54:26.248Z,11.13
2023-04-11T17:56:53.192Z,11.57
2023-04-11T17:59:21.015Z,9.13
2023-04-11T18:01:47.911Z,11.20
2023-04-11T18:04:15.343Z,15.27
2023-04-11T18:06:42.677Z,10.00
2023-04-11T18:09:09.365Z,10.63
2023-04-11T18:11:36.340Z,10.00
2023-04-11T18:14:03.151Z,6.20
2023-04-11T18:16:29.831Z,4.33
2023-04-11T18:18:56.856Z,4.03
2023-04-11T18:21:23.490Z,3.50
2023-04-11T18:23:50.142Z,4.40
2023-04-11T18:26:16.830Z,7.63
2023-04-11T18:28:43.476Z,3.33
2023-04-11T18:31:10.433Z,6.80
2023-04-11T18:33:40.996Z,3.40
2023-04-11T18:36:09.876Z,4.23
2023-04-11T18:38:36.563Z,4.97
2023-04-11T18:41:06.610Z,10.77
2023-04-11T18:43:34.342Z,4.30
2023-04-11T18:46:01.832Z,2.93
2023-04-11T18:48:28.475Z,5.53
2023-04-11T18:50:59.744Z,6.50
2023-04-11T18:53:28.319Z,5.10
2023-04-11T18:55:54.919Z,5.50
2023-04-11T18:58:24.203Z,5.80
2023-04-11T19:00:52.838Z,8.07
2023-04-11T19:03:19.792Z,5.80
2023-04-11T19:05:47.000Z,8.70
2023-04-11T19:08:13.805Z,10.67
2023-04-11T19:10:40.516Z,3.27
2023-04-11T19:13:07.262Z,4.40
2023-04-11T19:15:33.873Z,4.10
2023-04-11T19:18:00.790Z,5.03
2023-04-11T19:20:28.171Z,4.30
2023-04-11T19:22:54.889Z,2.90
2023-04-11T19:25:21.845Z,7.10
2023-04-11T19:27:49.051Z,8.10
2023-04-11T19:30:15.830Z,4.33
2023-04-11T19:32:43.585Z,5.03
2023-04-11T19:35:11.096Z,5.30
2023-04-11T19:37:38.055Z,6.10
2023-04-11T19:40:11.002Z,2.90
2023-04-11T19:42:39.727Z,12.03
2023-04-11T19:45:08.597Z,7.43
2023-04-11T19:47:35.683Z,9.33
2023-04-11T19:50:02.482Z,5.20
2023-04-11T19:52:29.352Z,7.07
2023-04-11T19:54:56.644Z,4.40
2023-04-11T19:57:24.866Z,4.23
2023-04-11T19:59:51.587Z,4.10
2023-04-11T20:02:18.626Z,3.50
2023-04-11T20:04:45.961Z,5.20
2023-04-11T20:07:13.199Z,6.90
2023-04-11T20:09:39.957Z,4.67
2023-04-11T20:12:07.240Z,3.70
2023-04-11T20:14:34.159Z,4.43
2023-04-11T20:17:00.888Z,3.03
2023-04-11T20:19:29.809Z,4.23
2023-04-11T20:21:56.620Z,6.30
2023-04-11T20:24:23.961Z,2.40
2023-04-11T20:26:51.239Z,2.70
2023-04-11T20:29:18.133Z,5.47
2023-04-11T20:31:44.924Z,9.60
2023-04-11T20:34:11.779Z,5.20
2023-04-11T20:36:38.851Z,7.43
2023-04-11T20:39:06.296Z,2.60
2023-04-11T20:41:33.113Z,4.73
2023-04-11T20:43:59.893Z,5.27
2023-04-11T20:46:29.833Z,5.77
2023-04-11T20:48:56.776Z,4.67
2023-04-11T20:51:25.074Z,5.07
2023-04-11T20:53:51.888Z,8.70
2023-04-11T20:56:18.508Z,7.30
2023-04-11T20:58:46.526Z,3.53
2023-04-11T21:01:13.620Z,5.00
2023-04-11T21:03:42.400Z,6.40
2023-04-11T21:06:10.261Z,3.67
2023-04-11T21:08:37.849Z,6.30
2023-04-11T21:11:05.723Z,7.33
2023-04-11T21:13:32.404Z,6.03
2023-04-11T21:15:59.275Z,3.10
2023-04-11T21:18:25.965Z,5.40
2023-04-11T21:20:52.630Z,5.70
2023-04-11T21:23:19.280Z,5.67
2023-04-11T21:25:45.977Z,3.50
2023-04-11T21:28:12.723Z,4.67
2023-04-11T21:30:39.669Z,11.20
2023-04-11T21:33:06.500Z,6.87
2023-04-11T21:35:33.246Z,5.43
2023-04-11T21:37:59.995Z,6.93
2023-04-11T21:40:26.712Z,7.43
2023-04-11T21:42:53.356Z,8.13
2023-04-11T21:45:19.971Z,3.77
2023-04-11T21:47:46.866Z,4.70
2023-04-11T21:50:13.589Z,3.53
2023-04-11T21:52:40.298Z,3.80
2023-04-11T21:55:09.102Z,6.07
2023-04-11T21:57:36.005Z,2.83
2023-04-11T22:00:03.856Z,4.30
2023-04-11T22:02:38.760Z,4.27
2023-04-11T22:05:08.742Z,4.90
2023-04-11T22:07:46.201Z,7.77
2023-04-11T22:10:13.000Z,6.40
2023-04-11T22:12:40.624Z,6.33
2023-04-11T22:15:08.266Z,7.00
2023-04-11T22:17:37.213Z,9.20
2023-04-11T22:20:06.681Z,6.87
2023-04-11T22:22:33.383Z,5.90
2023-04-11T22:25:00.211Z,3.33
2023-04-11T22:27:27.291Z,7.40
2023-04-11T22:29:57.593Z,3.93
2023-04-11T22:32:24.349Z,5.20
2023-04-11T22:34:51.139Z,3.77
2023-04-11T22:37:17.931Z,3.13
2023-04-11T22:39:44.548Z,2.47
2023-04-11T22:42:11.693Z,7.03
2023-04-11T22:44:38.385Z,7.63
2023-04-11T22:47:07.017Z,6.20
2023-04-11T22:49:40.695Z,3.50
2023-04-11T22:52:14.825Z,4.30
2023-04-11T22:54:42.653Z,3.97
2023-04-11T22:57:09.673Z,4.27
2023-04-11T22:59:36.613Z,2.40
2023-04-11T23:02:03.383Z,5.80
2023-04-11T23:04:31.566Z,5.40
2023-04-11T23:06:58.409Z,7.80
2023-04-11T23:09:25.246Z,8.87
2023-04-11T23:11:52.361Z,3.87
2023-04-11T23:14:21.054Z,5.27
2023-04-11T23:16:48.090Z,4.83
2023-04-11T23:19:15.050Z,5.37
2023-04-11T23:21:42.171Z,7.30
2023-04-11T23:24:09.870Z,4.80
2023-04-11T23:26:37.129Z,6.50
2023-04-11T23:29:03.870Z,8.30
2023-04-11T23:31:31.613Z,5.93
2023-04-11T23:33:58.841Z,3.83
2023-04-11T23:36:27.467Z,3.70
2023-04-11T23:38:54.182Z,5.53
2023-04-11T23:41:20.860Z,10.10
2023-04-11T23:43:49.532Z,7.57
2023-04-11T23:46:18.185Z,5.47
2023-04-11T23:48:46.850Z,5.83
2023-04-11T23:51:13.817Z,7.30
2023-04-11T23:53:40.594Z,7.17
2023-04-11T23:56:07.813Z,5.40
2023-04-11T23:58:34.761Z,6.40
